createdAt,value
2019-02-14T00:00:52.167Z,80.02
2019-02-14T00:01:52.155Z,80.02
2019-02-14T00:02:52.169Z,79.71
2019-02-14T00:03:52.128Z,79.24
2019-02-14T00:04:52.156Z,79.96
2019-02-14T00:05:52.114Z,79.44
2019-02-14T00:06:52.127Z,80.16
2019-02-14T00:07:52.104Z,79.55
2019-02-14T00:08:52.106Z,79.96
2019-02-14T00:09:52.066Z,79.34
2019-02-14T00:10:52.060Z,79.65
2019-02-14T00:11:52.047Z,79.24
2019-02-14T00:12:52.077Z,79.65
2019-02-14T00:13:52.044Z,79.65
2019-02-14T00:14:52.014Z,79.79
2019-02-14T00:15:52.001Z,79.58
2019-02-14T00:16:52.016Z,79.79
2019-02-14T00:17:52.002Z,79.65
2019-02-14T00:18:51.970Z,79.69
2019-02-14T00:19:51.979Z,79.69
2019-02-14T00:20:51.978Z,79.69
2019-02-14T00:21:51.939Z,79.69
2019-02-14T00:22:51.928Z,79.69
2019-02-14T00:23:51.924Z,79.48
2019-02-14T00:24:51.905Z,79.69
2019-02-14T00:25:51.918Z,80.10
2019-02-14T00:26:51.905Z,80.52
2019-02-14T00:27:51.878Z,80.21
2019-02-14T00:28:51.864Z,81.04
2019-02-14T00:29:51.853Z,81.14
2019-02-14T00:30:51.843Z,81.56
2019-02-14T00:31:51.873Z,81.14
2019-02-14T00:32:51.820Z,80.21
2019-02-14T00:33:51.805Z,80.62
2019-02-14T00:34:51.823Z,80.62
2019-02-14T00:35:51.787Z,80.41
2019-02-14T00:36:51.847Z,80.83
2019-02-14T00:37:51.790Z,80.52
2019-02-14T00:38:51.756Z,80.73
2019-02-14T00:39:51.741Z,80.10
2019-02-14T00:40:51.738Z,80.41
2019-02-14T00:41:51.719Z,80.55
2019-02-14T00:42:51.763Z,80.93
2019-02-14T00:43:51.710Z,80.97
2019-02-14T00:44:51.715Z,81.18
2019-02-14T00:45:51.687Z,81.28
2019-02-14T00:46:51.678Z,81.18
2019-02-14T00:47:51.658Z,80.66
2019-02-14T00:48:51.659Z,81.59
2019-02-14T00:49:51.654Z,81.18
2019-02-14T00:50:51.627Z,81.07
2019-02-14T00:51:51.648Z,80.97
2019-02-14T00:52:51.611Z,81.18
2019-02-14T00:53:51.774Z,80.76
2019-02-14T00:54:51.593Z,80.87
2019-02-14T00:55:51.571Z,80.97
2019-02-14T00:56:51.558Z,80.49
2019-02-14T00:57:51.557Z,81.21
2019-02-14T00:58:51.562Z,81.63
2019-02-14T00:59:51.527Z,81.21
2019-02-14T01:00:51.538Z,81.52
2019-02-14T01:01:51.503Z,81.32
2019-02-14T01:02:51.496Z,81.63
2019-02-14T01:03:51.526Z,81.73
2019-02-14T01:04:51.475Z,81.63
2019-02-14T01:05:51.462Z,81.94
2019-02-14T01:06:51.460Z,81.63
2019-02-14T01:07:51.461Z,81.32
2019-02-14T01:08:51.432Z,81.73
2019-02-14T01:09:51.465Z,81.63
2019-02-14T01:10:51.409Z,81.35
2019-02-14T01:11:51.398Z,81.42
2019-02-14T01:12:51.430Z,81.42
2019-02-14T01:13:51.434Z,81.52
2019-02-14T01:14:51.382Z,80.49
2019-02-14T01:15:51.375Z,80.90
2019-02-14T01:16:51.380Z,80.28
2019-02-14T01:17:51.373Z,80.80
2019-02-14T01:18:51.345Z,80.90
2019-02-14T01:19:51.340Z,80.69
2019-02-14T01:20:51.310Z,80.59
2019-02-14T01:21:51.317Z,80.28
2019-02-14T01:22:51.317Z,80.73
2019-02-14T01:23:51.296Z,80.94
2019-02-14T01:24:51.324Z,80.73
2019-02-14T01:25:51.268Z,80.73
2019-02-14T01:26:51.236Z,80.73
2019-02-14T01:27:51.227Z,80.73
2019-02-14T01:28:51.245Z,80.52
2019-02-14T01:29:51.252Z,80.73
2019-02-14T01:30:51.223Z,80.52
2019-02-14T01:31:51.201Z,80.73
2019-02-14T01:32:51.197Z,80.28
2019-02-14T01:33:51.186Z,81.25
2019-02-14T01:34:51.174Z,80.63
2019-02-14T01:35:51.169Z,81.15
2019-02-14T01:36:51.135Z,80.63
2019-02-14T01:37:51.120Z,81.11
2019-02-14T01:38:51.111Z,81.46
2019-02-14T01:39:51.098Z,81.25
2019-02-14T01:40:51.108Z,81.35
2019-02-14T01:41:51.093Z,81.11
2019-02-14T01:42:51.078Z,81.15
2019-02-14T01:43:51.079Z,81.15
2019-02-14T01:44:51.048Z,81.15
2019-02-14T01:45:51.030Z,81.25
2019-02-14T01:46:51.019Z,80.94
2019-02-14T01:47:51.246Z,80.83
2019-02-14T01:48:51.003Z,80.52
2019-02-14T01:49:50.992Z,80.63
2019-02-14T01:50:50.980Z,80.63
2019-02-14T01:51:50.967Z,80.94
2019-02-14T01:52:50.958Z,80.73
2019-02-14T01:53:51.237Z,80.63
2019-02-14T01:54:50.942Z,80.83
2019-02-14T01:55:50.933Z,80.73
2019-02-14T01:56:50.915Z,80.73
2019-02-14T01:57:50.907Z,80.56
2019-02-14T01:58:50.894Z,80.94
2019-02-14T01:59:50.924Z,81.15
2019-02-14T02:00:50.924Z,81.67
2019-02-14T02:01:50.863Z,81.56
2019-02-14T02:02:50.851Z,81.56
2019-02-14T02:03:50.839Z,81.15
2019-02-14T02:04:50.835Z,80.73
2019-02-14T02:05:51.177Z,80.73
2019-02-14T02:06:50.840Z,81.91
2019-02-14T02:07:50.800Z,81.56
2019-02-14T02:08:50.802Z,81.49
2019-02-14T02:09:50.777Z,81.46
2019-02-14T02:10:50.804Z,81.39
2019-02-14T02:11:50.782Z,82.12
2019-02-14T02:12:50.747Z,81.46
2019-02-14T02:13:50.731Z,81.39
2019-02-14T02:14:50.731Z,81.56
2019-02-14T02:15:50.712Z,81.39
2019-02-14T02:16:50.737Z,81.70
2019-02-14T02:17:50.698Z,80.87
2019-02-14T02:18:50.675Z,81.25
2019-02-14T02:19:50.663Z,81.25
2019-02-14T02:20:50.657Z,80.87
2019-02-14T02:21:50.667Z,81.29
2019-02-14T02:22:50.676Z,81.49
2019-02-14T02:23:50.624Z,81.18
2019-02-14T02:24:50.613Z,81.81
2019-02-14T02:25:50.600Z,81.74
2019-02-14T02:26:50.587Z,81.63
2019-02-14T02:27:50.605Z,81.63
2019-02-14T02:28:50.591Z,82.36
2019-02-14T02:29:50.556Z,82.78
2019-02-14T02:30:50.557Z,82.99
2019-02-14T02:31:50.537Z,83.30
2019-02-14T02:32:50.528Z,83.09
2019-02-14T02:33:50.543Z,83.72
2019-02-14T02:34:50.512Z,83.20
2019-02-14T02:35:59.952Z,82.89
2019-02-14T02:36:51.772Z,83.20
2019-02-14T02:37:50.474Z,83.16
2019-02-14T02:38:50.461Z,83.26
2019-02-14T02:39:50.482Z,83.16
2019-02-14T02:40:50.446Z,82.99
2019-02-14T02:41:50.434Z,83.26
2019-02-14T02:42:50.460Z,82.53
2019-02-14T02:43:50.407Z,82.22
2019-02-14T02:44:50.421Z,82.22
2019-02-14T02:45:50.421Z,81.81
2019-02-14T02:46:50.379Z,82.53
2019-02-14T02:47:50.391Z,82.84
2019-02-14T02:48:50.360Z,82.43
2019-02-14T02:49:50.368Z,82.68
2019-02-14T02:50:50.338Z,82.15
2019-02-14T02:51:50.363Z,81.63
2019-02-14T02:52:50.345Z,81.84
2019-02-14T02:53:50.300Z,81.32
2019-02-14T02:54:50.291Z,81.74
2019-02-14T02:55:50.282Z,81.43
2019-02-14T02:56:50.270Z,81.63
2019-02-14T02:57:50.295Z,81.53
2019-02-14T02:58:50.304Z,81.74
2019-02-14T02:59:50.260Z,81.67
2019-02-14T03:00:50.223Z,81.95
2019-02-14T03:01:50.213Z,82.57
2019-02-14T03:02:50.275Z,82.36
2019-02-14T03:03:50.238Z,83.30
2019-02-14T03:04:50.181Z,83.34
2019-02-14T03:05:50.170Z,82.99
2019-02-14T03:06:50.188Z,83.51
2019-02-14T03:07:50.147Z,82.71
2019-02-14T03:08:50.212Z,82.92
2019-02-14T03:09:50.151Z,82.46
2019-02-14T03:10:50.150Z,82.20
2019-02-14T03:11:50.137Z,82.20
2019-02-14T03:12:50.140Z,82.30
2019-02-14T03:13:50.108Z,82.30
2019-02-14T03:14:50.089Z,82.15
2019-02-14T03:15:50.064Z,82.82
2019-02-14T03:16:50.081Z,82.61
2019-02-14T03:17:50.045Z,82.40
2019-02-14T03:18:50.065Z,82.20
2019-02-14T03:19:50.022Z,82.30
2019-02-14T03:20:50.037Z,82.30
2019-02-14T03:21:50.000Z,83.03
2019-02-14T03:22:49.992Z,82.92
2019-02-14T03:23:50.006Z,83.23
2019-02-14T03:24:49.969Z,83.34
2019-02-14T03:25:49.955Z,83.34
2019-02-14T03:26:49.974Z,83.34
2019-02-14T03:27:49.961Z,82.99
2019-02-14T03:28:49.960Z,82.89
2019-02-14T03:29:49.910Z,83.03
2019-02-14T03:32:12.398Z,83.69
2019-02-14T03:33:12.383Z,83.34
2019-02-14T03:34:12.381Z,83.03
2019-02-14T03:35:12.358Z,83.27
2019-02-14T03:36:18.840Z,83.23
2019-02-14T03:37:13.323Z,83.13
2019-02-14T03:38:12.318Z,82.44
2019-02-14T03:39:12.343Z,82.65
2019-02-14T03:40:12.289Z,82.44
2019-02-14T03:41:12.276Z,82.13
2019-02-14T03:42:12.267Z,82.20
2019-02-14T03:43:12.278Z,82.13
2019-02-14T03:44:12.245Z,82.03
2019-02-14T03:45:12.263Z,82.03
2019-02-14T03:46:12.228Z,82.23
2019-02-14T03:47:12.216Z,82.34
2019-02-14T03:48:12.205Z,82.23
2019-02-14T03:49:12.239Z,82.68
2019-02-14T03:50:12.185Z,82.89
2019-02-14T03:51:12.168Z,82.65
2019-02-14T03:52:12.175Z,83.06
2019-02-14T03:53:12.158Z,83.80
2019-02-14T03:54:12.144Z,83.27
2019-02-14T03:55:12.171Z,83.37
2019-02-14T03:56:12.116Z,83.80
2019-02-14T03:57:12.108Z,82.86
2019-02-14T03:58:12.100Z,83.27
2019-02-14T03:59:12.087Z,83.27
2019-02-14T04:00:12.095Z,82.96
2019-02-14T04:01:12.078Z,83.37
2019-02-14T04:02:12.055Z,83.17
2019-02-14T04:03:12.038Z,82.13
2019-02-14T04:04:12.030Z,82.54
2019-02-14T04:05:12.047Z,82.27
2019-02-14T04:06:12.035Z,82.58
2019-02-14T04:07:12.001Z,82.58
2019-02-14T04:08:11.983Z,82.79
2019-02-14T04:09:11.976Z,82.37
2019-02-14T04:10:11.987Z,82.17
2019-02-14T04:11:11.984Z,82.89
2019-02-14T04:12:11.977Z,82.48
2019-02-14T04:13:11.938Z,83.00
2019-02-14T04:14:11.924Z,82.89
2019-02-14T04:15:11.937Z,83.31
2019-02-14T04:16:11.900Z,83.42
2019-02-14T04:17:11.889Z,83.20
2019-02-14T04:18:11.916Z,83.42
2019-02-14T04:19:11.873Z,83.42
2019-02-14T04:20:11.879Z,82.48
2019-02-14T04:21:11.841Z,82.58
2019-02-14T04:22:11.832Z,82.62
2019-02-14T04:23:11.819Z,82.62
2019-02-14T04:24:11.872Z,82.82
2019-02-14T04:25:11.798Z,82.10
2019-02-14T04:26:11.790Z,82.82
2019-02-14T04:27:11.783Z,82.51
2019-02-14T04:28:11.769Z,82.51
2019-02-14T04:29:11.754Z,82.51
2019-02-14T04:30:11.785Z,82.31
2019-02-14T04:31:11.769Z,82.93
2019-02-14T04:32:11.722Z,82.72
2019-02-14T04:33:11.747Z,82.93
2019-02-14T04:34:11.702Z,82.62
2019-02-14T04:35:11.739Z,82.62
2019-02-14T04:36:11.702Z,83.35
2019-02-14T04:37:11.691Z,83.04
2019-02-14T04:38:11.683Z,83.04
2019-02-14T04:39:11.676Z,83.04
2019-02-14T04:40:11.667Z,83.28
2019-02-14T04:41:11.682Z,83.18
2019-02-14T04:42:11.667Z,82.87
2019-02-14T04:43:11.630Z,83.28
2019-02-14T04:44:11.618Z,83.35
2019-02-14T04:45:11.580Z,83.35
2019-02-14T04:46:11.597Z,83.25
2019-02-14T04:47:11.608Z,83.76
2019-02-14T04:48:11.601Z,83.56
2019-02-14T04:49:11.564Z,83.18
2019-02-14T04:50:11.525Z,83.14
2019-02-14T04:51:11.741Z,83.04
2019-02-14T04:52:11.507Z,83.35
2019-02-14T04:53:11.519Z,82.24
2019-02-14T04:54:11.486Z,82.51
2019-02-14T04:55:11.470Z,82.82
2019-02-14T04:56:11.459Z,82.34
2019-02-14T04:57:11.468Z,82.76
2019-02-14T04:58:11.440Z,82.76
2019-02-14T04:59:11.467Z,82.65
2019-02-14T05:00:11.416Z,82.51
2019-02-14T05:01:11.407Z,82.31
2019-02-14T05:02:11.429Z,82.20
2019-02-14T05:03:11.406Z,82.93
2019-02-14T05:04:11.427Z,82.51
2019-02-14T05:05:11.420Z,82.45
2019-02-14T05:06:11.357Z,82.62
2019-02-14T05:07:11.338Z,82.31
2019-02-14T05:08:11.331Z,82.34
2019-02-14T05:09:11.314Z,82.65
2019-02-14T05:10:11.319Z,82.55
2019-02-14T05:11:11.313Z,82.41
2019-02-14T05:12:11.284Z,82.34
2019-02-14T05:13:11.275Z,82.55
2019-02-14T05:14:11.287Z,82.34
2019-02-14T05:15:11.281Z,82.97
2019-02-14T05:16:11.259Z,83.18
2019-02-14T05:17:11.230Z,83.49
2019-02-14T05:18:11.243Z,83.70
2019-02-14T05:19:11.203Z,84.33
2019-02-14T05:20:11.194Z,84.12
2019-02-14T05:21:11.186Z,84.33
2019-02-14T05:22:11.190Z,83.91
2019-02-14T05:23:11.189Z,83.97
2019-02-14T05:24:11.162Z,83.91
2019-02-14T05:25:11.139Z,84.33
2019-02-14T05:26:11.126Z,83.49
2019-02-14T05:27:11.114Z,83.39
2019-02-14T05:28:11.186Z,83.39
2019-02-14T05:29:11.097Z,83.07
2019-02-14T05:30:11.097Z,82.87
2019-02-14T05:31:11.073Z,82.97
2019-02-14T05:32:11.089Z,82.65
2019-02-14T05:33:11.104Z,82.76
2019-02-14T05:34:11.040Z,82.76
2019-02-14T05:35:11.026Z,83.01
2019-02-14T05:36:11.021Z,82.76
2019-02-14T05:37:11.004Z,83.22
2019-02-14T05:38:11.029Z,83.53
2019-02-14T05:39:11.007Z,82.76
2019-02-14T05:40:10.979Z,83.42
2019-02-14T05:41:10.961Z,83.42
2019-02-14T05:42:10.953Z,83.11
2019-02-14T05:43:10.937Z,83.32
2019-02-14T05:44:10.956Z,83.25
2019-02-14T05:45:10.942Z,83.32
2019-02-14T05:46:10.905Z,82.70
2019-02-14T05:47:10.895Z,82.80
2019-02-14T05:48:10.889Z,82.84
2019-02-14T05:49:10.899Z,82.80
2019-02-14T05:50:10.865Z,83.53
2019-02-14T05:51:10.876Z,83.95
2019-02-14T05:52:10.841Z,83.95
2019-02-14T05:53:10.832Z,84.47
2019-02-14T05:54:10.839Z,84.57
2019-02-14T05:55:10.815Z,84.16
2019-02-14T05:56:10.821Z,84.47
2019-02-14T05:57:10.808Z,84.84
2019-02-14T05:58:10.776Z,84.84
2019-02-14T05:59:10.786Z,84.33
2019-02-14T06:00:10.750Z,84.22
2019-02-14T06:01:10.742Z,84.43
2019-02-14T06:02:10.731Z,84.64
2019-02-14T06:03:10.752Z,83.59
2019-02-14T06:04:10.769Z,84.57
2019-02-14T06:05:10.703Z,84.26
2019-02-14T06:06:10.708Z,84.01
2019-02-14T06:07:10.679Z,83.80
2019-02-14T06:08:10.665Z,83.74
2019-02-14T06:09:10.739Z,84.22
2019-02-14T06:10:10.694Z,83.80
2019-02-14T06:11:10.628Z,84.01
2019-02-14T06:12:10.623Z,84.36
2019-02-14T06:13:10.636Z,83.63
2019-02-14T06:14:10.721Z,83.95
2019-02-14T06:15:10.603Z,84.36
2019-02-14T06:16:10.594Z,83.53
2019-02-14T06:17:10.563Z,83.32
2019-02-14T06:18:10.608Z,83.74
2019-02-14T06:19:10.571Z,84.50
2019-02-14T06:20:10.605Z,83.67
2019-02-14T06:21:10.524Z,84.40
2019-02-14T06:22:10.536Z,84.09
2019-02-14T06:23:10.550Z,84.09
2019-02-14T06:24:10.562Z,84.19
2019-02-14T06:25:10.503Z,84.09
2019-02-14T06:26:10.522Z,84.19
2019-02-14T06:27:10.501Z,84.09
2019-02-14T06:28:10.471Z,84.40
2019-02-14T06:29:10.482Z,84.19
2019-02-14T06:30:10.447Z,83.63
2019-02-14T06:31:10.410Z,84.05
2019-02-14T06:32:10.405Z,83.95
2019-02-14T06:33:10.398Z,83.88
2019-02-14T06:34:10.386Z,84.16
2019-02-14T06:35:10.397Z,83.74
2019-02-14T06:36:10.362Z,84.36
2019-02-14T06:37:10.590Z,84.36
2019-02-14T06:38:10.331Z,83.74
2019-02-14T06:39:10.320Z,83.32
2019-02-14T06:40:10.319Z,83.53
2019-02-14T06:41:10.302Z,83.22
2019-02-14T06:42:10.303Z,83.74
2019-02-14T06:43:10.321Z,83.95
2019-02-14T06:44:10.270Z,83.78
2019-02-14T06:45:10.277Z,83.95
2019-02-14T06:46:10.242Z,83.74
2019-02-14T06:47:10.237Z,83.78
2019-02-14T06:48:10.232Z,84.05
2019-02-14T06:49:10.257Z,84.09
2019-02-14T06:50:10.201Z,83.84
2019-02-14T06:51:10.211Z,84.26
2019-02-14T06:52:10.181Z,83.95
2019-02-14T06:53:10.173Z,84.05
2019-02-14T06:54:10.154Z,83.95
2019-02-14T06:55:10.168Z,83.74
2019-02-14T06:56:10.161Z,83.32
2019-02-14T06:57:10.155Z,84.16
2019-02-14T06:58:10.112Z,83.95
2019-02-14T06:59:10.102Z,83.84
2019-02-14T07:00:10.092Z,84.05
2019-02-14T07:01:10.139Z,83.84
2019-02-14T07:02:10.068Z,83.95
2019-02-14T07:03:10.065Z,83.74
2019-02-14T07:04:10.052Z,84.16
2019-02-14T07:05:10.038Z,84.12
2019-02-14T07:06:10.055Z,83.91
2019-02-14T07:07:17.893Z,84.12
2019-02-14T07:08:10.999Z,83.59
2019-02-14T07:09:09.990Z,83.59
2019-02-14T07:10:09.984Z,84.01
2019-02-14T07:11:09.999Z,84.22
2019-02-14T07:12:09.966Z,84.01
2019-02-14T07:13:09.975Z,83.59
2019-02-14T07:14:09.937Z,83.70
2019-02-14T07:15:09.929Z,83.91
2019-02-14T07:16:09.917Z,84.01
2019-02-14T07:17:09.932Z,83.80
2019-02-14T07:18:09.898Z,84.01
2019-02-14T07:19:09.905Z,84.22
2019-02-14T07:20:09.874Z,83.87
2019-02-14T07:21:09.889Z,84.12
2019-02-14T07:22:09.851Z,84.18
2019-02-14T07:23:09.843Z,83.28
2019-02-14T07:24:09.828Z,82.93
2019-02-14T07:25:09.842Z,83.35
2019-02-14T07:26:09.807Z,83.45
2019-02-14T07:27:09.824Z,83.45
2019-02-14T07:28:09.784Z,83.25
2019-02-14T07:29:09.775Z,83.18
2019-02-14T07:30:09.764Z,83.04
2019-02-14T07:31:09.774Z,83.35
2019-02-14T07:32:09.768Z,82.62
2019-02-14T07:33:09.731Z,82.72
2019-02-14T07:34:09.724Z,82.93
2019-02-14T07:35:09.710Z,82.82
2019-02-14T07:36:09.736Z,83.04
2019-02-14T07:37:09.718Z,82.82
2019-02-14T07:38:09.678Z,83.66
2019-02-14T07:39:11.083Z,83.45
2019-02-14T07:40:09.671Z,83.35
2019-02-14T07:41:09.647Z,83.45
2019-02-14T07:42:09.705Z,83.45
2019-02-14T07:43:09.621Z,83.00
2019-02-14T07:44:09.637Z,83.42
2019-02-14T07:45:09.604Z,83.20
2019-02-14T07:46:09.593Z,82.79
2019-02-14T07:47:09.575Z,82.79
2019-02-14T07:48:09.622Z,82.79
2019-02-14T07:49:09.559Z,82.89
2019-02-14T07:50:09.609Z,83.27
2019-02-14T07:51:09.541Z,83.27
2019-02-14T07:52:09.548Z,82.96
2019-02-14T07:53:09.562Z,82.65
2019-02-14T07:54:09.549Z,82.96
2019-02-14T07:55:09.615Z,82.44
2019-02-14T07:56:09.511Z,82.54
2019-02-14T07:57:09.471Z,83.06
2019-02-14T07:58:09.542Z,82.96
2019-02-14T07:59:09.472Z,82.34
2019-02-14T08:00:09.489Z,82.34
2019-02-14T08:01:09.452Z,81.92
2019-02-14T08:02:09.465Z,82.20
2019-02-14T08:03:09.432Z,82.40
2019-02-14T08:04:09.405Z,82.40
2019-02-14T08:05:09.385Z,82.20
2019-02-14T08:06:09.436Z,82.71
2019-02-14T08:07:09.359Z,82.61
2019-02-14T08:08:09.378Z,82.30
2019-02-14T08:09:09.368Z,82.51
2019-02-14T08:10:09.359Z,82.40
2019-02-14T08:11:09.327Z,82.30
2019-02-14T08:12:09.381Z,82.09
2019-02-14T08:13:09.302Z,82.57
2019-02-14T08:14:09.353Z,82.15
2019-02-14T08:15:09.279Z,82.15
2019-02-14T08:16:09.302Z,82.46
2019-02-14T08:17:09.257Z,82.78
2019-02-14T08:18:09.271Z,82.92
2019-02-14T08:19:09.263Z,82.68
2019-02-14T08:20:09.222Z,82.57
2019-02-14T08:21:09.216Z,82.36
2019-02-14T08:22:09.203Z,83.20
2019-02-14T08:23:09.193Z,82.99
2019-02-14T08:24:09.238Z,82.68
2019-02-14T08:25:09.198Z,82.89
2019-02-14T08:26:11.130Z,83.05
2019-02-14T08:27:09.149Z,82.74
2019-02-14T08:28:09.142Z,82.95
2019-02-14T08:29:09.132Z,83.26
2019-02-14T08:30:09.182Z,83.16
2019-02-14T08:31:09.123Z,82.53
2019-02-14T08:32:09.098Z,82.53
2019-02-14T08:33:09.086Z,82.53
2019-02-14T08:34:09.096Z,82.64
2019-02-14T08:35:09.097Z,81.35
2019-02-14T08:36:09.052Z,81.67
2019-02-14T08:37:09.103Z,81.49
2019-02-14T08:38:09.032Z,81.15
2019-02-14T08:39:09.020Z,81.15
2019-02-14T08:40:09.015Z,80.83
2019-02-14T08:41:09.037Z,80.94
2019-02-14T08:42:09.033Z,80.94
2019-02-14T08:43:08.978Z,80.73
2019-02-14T08:44:08.966Z,80.52
2019-02-14T08:45:08.954Z,80.52
2019-02-14T08:46:08.948Z,80.73
2019-02-14T08:47:08.952Z,80.63
2019-02-14T08:48:08.953Z,80.73
2019-02-14T08:49:08.917Z,80.83
2019-02-14T08:50:08.931Z,80.73
2019-02-14T08:51:08.913Z,80.69
2019-02-14T08:52:08.889Z,80.69
2019-02-14T08:53:08.922Z,80.49
2019-02-14T08:54:08.859Z,80.80
2019-02-14T08:55:10.054Z,80.69
2019-02-14T08:56:08.839Z,80.49
2019-02-14T08:57:08.826Z,80.55
2019-02-14T08:58:08.828Z,80.59
2019-02-14T08:59:08.827Z,80.55
2019-02-14T09:00:09.044Z,80.55
2019-02-14T09:01:08.790Z,80.87
2019-02-14T09:02:08.776Z,80.97
2019-02-14T09:03:08.772Z,80.04
2019-02-14T09:04:08.777Z,79.72
2019-02-14T09:05:08.744Z,79.38
2019-02-14T09:06:08.751Z,79.83
2019-02-14T09:07:08.751Z,79.69
2019-02-14T09:08:08.713Z,79.58
2019-02-14T09:09:08.698Z,79.79
2019-02-14T09:10:08.698Z,79.17
2019-02-14T09:11:08.682Z,78.75
2019-02-14T09:12:08.721Z,78.75
2019-02-14T09:13:16.811Z,78.44
2019-02-14T09:14:09.646Z,78.34
2019-02-14T09:15:08.634Z,78.20
2019-02-14T09:16:08.647Z,77.37
2019-02-14T09:17:08.669Z,77.30
2019-02-14T09:18:08.597Z,77.37
2019-02-14T09:19:08.589Z,77.26
2019-02-14T09:20:08.581Z,77.06
2019-02-14T09:21:08.624Z,76.85
2019-02-14T09:22:08.570Z,76.54
2019-02-14T09:23:08.546Z,76.23
2019-02-14T09:24:08.532Z,76.23
2019-02-14T09:25:08.527Z,76.33
2019-02-14T09:26:08.517Z,76.40
2019-02-14T09:27:08.530Z,76.23
2019-02-14T09:28:08.516Z,76.23
2019-02-14T09:29:08.490Z,76.23
2019-02-14T09:30:08.470Z,76.19
2019-02-14T09:31:08.495Z,75.98
2019-02-14T09:32:08.473Z,76.40
2019-02-14T09:33:08.437Z,75.98
2019-02-14T09:34:08.485Z,76.09
2019-02-14T09:35:08.440Z,75.95
2019-02-14T09:36:08.405Z,76.15
2019-02-14T09:37:08.449Z,75.12
2019-02-14T09:38:08.391Z,74.29
2019-02-14T09:39:08.371Z,74.29
2019-02-14T09:40:08.389Z,74.50
2019-02-14T09:41:08.404Z,74.50
2019-02-14T09:42:08.805Z,74.50
2019-02-14T09:43:08.350Z,74.19
2019-02-14T09:44:08.320Z,74.08
2019-02-14T09:45:08.304Z,74.60
2019-02-14T09:46:08.313Z,73.84
2019-02-14T09:47:08.316Z,72.81
2019-02-14T09:48:08.269Z,73.01
2019-02-14T09:49:08.265Z,73.43
2019-02-14T09:50:08.276Z,73.43
2019-02-14T09:51:08.293Z,73.63
2019-02-14T09:52:08.267Z,74.57
2019-02-14T09:53:08.220Z,73.63
2019-02-14T09:54:08.252Z,74.63
2019-02-14T09:55:08.201Z,73.71
2019-02-14T09:56:08.213Z,73.91
2019-02-14T09:57:08.205Z,73.81
2019-02-14T09:58:08.196Z,74.22
2019-02-14T09:59:08.192Z,74.32
2019-02-14T10:00:08.183Z,74.32
2019-02-14T10:01:08.182Z,74.63
2019-02-14T10:02:08.149Z,74.50
2019-02-14T10:03:08.165Z,73.88
2019-02-14T10:04:08.110Z,74.19
2019-02-14T10:05:08.103Z,74.08
2019-02-14T10:06:08.105Z,74.22
2019-02-14T10:07:08.285Z,73.88
2019-02-14T10:08:12.711Z,73.88
2019-02-14T10:09:09.060Z,74.29
2019-02-14T10:10:08.035Z,73.15
2019-02-14T10:11:08.028Z,74.50
2019-02-14T10:12:08.033Z,74.40
2019-02-14T10:13:08.037Z,73.64
2019-02-14T10:14:07.997Z,73.22
2019-02-14T10:15:08.004Z,72.81
2019-02-14T10:16:07.972Z,72.91
2019-02-14T10:17:08.001Z,72.71
2019-02-14T10:18:07.945Z,72.91
2019-02-14T10:19:07.936Z,73.02
2019-02-14T10:20:07.939Z,72.81
2019-02-14T10:21:07.960Z,72.60
2019-02-14T10:22:07.909Z,72.91
2019-02-14T10:23:07.918Z,72.81
2019-02-14T10:24:07.882Z,72.60
2019-02-14T10:25:07.874Z,72.50
2019-02-14T10:26:07.861Z,73.02
2019-02-14T10:27:07.885Z,72.91
2019-02-14T10:28:07.872Z,73.12
2019-02-14T10:29:07.828Z,72.91
2019-02-14T10:30:07.820Z,73.33
2019-02-14T10:31:08.156Z,72.60
2019-02-14T10:32:07.817Z,72.39
2019-02-14T10:33:07.789Z,72.19
2019-02-14T10:34:07.791Z,72.08
2019-02-14T10:35:07.839Z,71.57
2019-02-14T10:36:07.758Z,71.67
2019-02-14T10:37:07.757Z,71.88
2019-02-14T10:38:07.783Z,71.33
2019-02-14T10:39:07.754Z,70.71
2019-02-14T10:40:07.711Z,70.61
2019-02-14T10:41:07.702Z,70.32
2019-02-14T10:42:07.777Z,70.29
2019-02-14T10:43:07.682Z,69.88
2019-02-14T10:44:07.670Z,69.78
2019-02-14T10:45:07.663Z,69.67
2019-02-14T10:46:07.652Z,68.74
2019-02-14T10:47:07.682Z,68.95
2019-02-14T10:48:07.649Z,68.95
2019-02-14T10:49:07.618Z,68.92
2019-02-14T10:50:07.607Z,68.19
2019-02-14T10:51:07.593Z,68.51
2019-02-14T10:52:07.587Z,67.78
2019-02-14T10:53:07.617Z,67.78
2019-02-14T10:54:07.566Z,67.88
2019-02-14T10:55:07.554Z,67.54
2019-02-14T10:56:07.548Z,67.85
2019-02-14T10:57:07.532Z,67.75
2019-02-14T10:58:07.547Z,66.72
2019-02-14T10:59:07.518Z,67.96
2019-02-14T11:00:07.500Z,67.00
2019-02-14T11:01:07.490Z,66.10
2019-02-14T11:02:07.476Z,65.86
2019-02-14T11:03:07.487Z,65.86
2019-02-14T11:04:07.455Z,65.34
2019-02-14T11:05:07.459Z,65.34
2019-02-14T11:06:07.488Z,65.76
2019-02-14T11:07:07.438Z,65.24
2019-02-14T11:08:07.443Z,65.14
2019-02-14T11:09:07.430Z,65.45
2019-02-14T11:10:07.394Z,65.66
2019-02-14T11:11:07.429Z,65.42
2019-02-14T11:12:07.398Z,65.31
2019-02-14T11:13:07.361Z,64.21
2019-02-14T11:14:07.388Z,63.97
2019-02-14T11:15:09.052Z,64.11
2019-02-14T11:16:07.351Z,64.39
2019-02-14T11:17:07.362Z,64.28
2019-02-14T11:18:07.327Z,65.24
2019-02-14T11:19:07.294Z,64.80
2019-02-14T11:20:07.310Z,64.80
2019-02-14T11:21:07.272Z,64.80
2019-02-14T11:22:07.260Z,64.39
2019-02-14T11:23:07.259Z,65.11
2019-02-14T11:24:07.444Z,64.67
2019-02-14T11:25:07.223Z,64.15
2019-02-14T11:26:08.649Z,63.87
2019-02-14T11:27:07.204Z,64.15
2019-02-14T11:28:07.264Z,63.64
2019-02-14T11:29:07.185Z,64.46
2019-02-14T11:30:07.196Z,64.25
2019-02-14T11:31:07.187Z,64.84
2019-02-14T11:32:07.146Z,64.22
2019-02-14T11:33:07.158Z,64.12
2019-02-14T11:34:07.194Z,64.74
2019-02-14T11:35:07.136Z,63.81
2019-02-14T11:36:07.103Z,64.32
2019-02-14T11:37:07.138Z,63.71
2019-02-14T11:38:07.126Z,64.22
2019-02-14T11:39:07.065Z,64.40
2019-02-14T11:40:07.102Z,64.50
2019-02-14T11:41:07.048Z,64.09
2019-02-14T11:42:07.060Z,63.57
2019-02-14T11:43:07.031Z,62.75
2019-02-14T11:44:07.040Z,62.52
2019-02-14T11:45:07.058Z,62.72
2019-02-14T11:46:06.987Z,62.31
2019-02-14T11:47:07.909Z,62.62
2019-02-14T11:48:06.965Z,62.62
2019-02-14T11:49:06.954Z,63.52
2019-02-14T11:50:06.971Z,62.79
2019-02-14T11:51:06.994Z,63.45
2019-02-14T11:52:06.922Z,63.24
2019-02-14T11:53:13.948Z,62.28
2019-02-14T11:54:07.905Z,62.07
2019-02-14T11:55:06.918Z,63.21
2019-02-14T11:56:06.878Z,63.31
2019-02-14T11:57:06.892Z,62.49
2019-02-14T11:58:06.858Z,62.90
2019-02-14T11:59:06.850Z,62.79
2019-02-14T12:00:06.837Z,62.59
2019-02-14T12:01:06.849Z,62.59
2019-02-14T12:02:06.817Z,62.15
2019-02-14T12:03:06.828Z,63.28
2019-02-14T12:04:06.795Z,63.10
2019-02-14T12:05:06.814Z,63.00
2019-02-14T12:06:06.769Z,64.11
2019-02-14T12:07:06.781Z,62.35
2019-02-14T12:08:06.759Z,62.56
2019-02-14T12:09:06.757Z,63.39
2019-02-14T12:10:13.232Z,62.25
2019-02-14T12:11:07.715Z,58.03
2019-02-14T12:12:06.715Z,57.62
2019-02-14T12:13:06.693Z,55.74
2019-02-14T12:14:06.689Z,55.95
2019-02-14T12:15:06.716Z,55.02
2019-02-14T12:16:06.702Z,54.82
2019-02-14T12:17:06.654Z,55.02
2019-02-14T12:18:06.639Z,55.74
2019-02-14T12:19:06.631Z,54.92
2019-02-14T12:20:12.250Z,55.23
2019-02-14T12:21:07.742Z,54.82
2019-02-14T12:22:06.597Z,53.25
2019-02-14T12:23:06.586Z,53.77
2019-02-14T12:24:06.575Z,55.21
2019-02-14T12:25:08.417Z,54.90
2019-02-14T12:26:06.627Z,54.87
2019-02-14T12:27:06.579Z,54.97
2019-02-14T12:28:06.555Z,55.28
2019-02-14T12:29:06.548Z,55.08
2019-02-14T12:30:06.516Z,54.97
2019-02-14T12:31:06.526Z,54.15
2019-02-14T12:32:06.486Z,52.71
2019-02-14T12:33:06.489Z,53.43
2019-02-14T12:34:06.494Z,53.53
2019-02-14T12:35:06.462Z,54.33
2019-02-14T12:36:06.494Z,52.48
2019-02-14T12:37:06.435Z,52.79
2019-02-14T12:38:06.426Z,53.10
2019-02-14T12:39:09.780Z,51.76
2019-02-14T12:40:06.413Z,51.66
2019-02-14T12:41:06.417Z,51.45
2019-02-14T12:42:06.441Z,51.45
2019-02-14T12:43:06.366Z,51.66
2019-02-14T12:44:06.381Z,51.45
2019-02-14T12:45:06.375Z,51.35
2019-02-14T12:46:06.380Z,51.43
2019-02-14T12:47:06.335Z,51.97
2019-02-14T12:48:06.548Z,51.84
2019-02-14T12:49:06.322Z,52.15
2019-02-14T12:50:06.315Z,51.95
2019-02-14T12:51:06.302Z,51.53
2019-02-14T12:52:06.295Z,50.20
2019-02-14T12:53:06.264Z,48.97
2019-02-14T12:54:06.272Z,50.30